Bitte eine E-Mail-Adresse für das Benutzerkonto eingeben. Ein Bestätigungscode wird dann an diese verschickt. Sobald der Code vorliegt, kann ein neues Passwort für das Benutzerkonto festgelegt werden.

WebCam

  
Kamera Halle
Kamera Vorfeld

GPS Triangle WM Sports Class

AeroClub Göppingen-Salach e.V.
Ausrichter der Modellflug
GPS Triangle-WM 2020

 

Aufgrund der aktuellen Corona Situation ist die WM auf den 15.8.-20.8.2021 verschoben
Wetter EDDS

METAR

EDDS 080520Z VRB01KT CAVOK 19/15 Q1022 NOSIG =
EDDS 080500Z 0806/0906 VRB03KT CAVOK TEMPO 0810/0818 06005KT


TAF

EDDS 080500Z 0806/0906 VRB03KT CAVOK TEMPO 0810/0818 06005KT =


SR/SS

04:05 / 18:48 UTC
(EDSO 08-08-2020)